createdAt,value
2017-05-03T00:00:21.690Z,0
2017-05-03T00:01:31.384Z,0
2017-05-03T00:02:41.394Z,0
2017-05-03T00:03:51.411Z,0
2017-05-03T00:05:01.118Z,0
2017-05-03T00:06:11.125Z,0
2017-05-03T00:07:21.135Z,0
2017-05-03T00:08:30.204Z,0
2017-05-03T00:09:39.898Z,0
2017-05-03T00:10:49.940Z,0
2017-05-03T00:11:59.944Z,0
2017-05-03T00:13:10.276Z,0
2017-05-03T00:14:19.973Z,0
2017-05-03T00:15:29.982Z,0
2017-05-03T00:16:40.353Z,0
2017-05-03T00:17:50.060Z,0
2017-05-03T00:19:00.076Z,0
2017-05-03T00:20:10.393Z,0
2017-05-03T00:21:20.405Z,0
2017-05-03T00:22:30.099Z,0
2017-05-03T00:23:40.429Z,0
2017-05-03T00:24:50.436Z,0
2017-05-03T00:26:00.456Z,0
2017-05-03T00:27:10.156Z,0
2017-05-03T00:28:20.173Z,0
2017-05-03T00:29:30.190Z,0
2017-05-03T00:30:39.889Z,0
2017-05-03T00:31:49.899Z,0
2017-05-03T00:32:59.901Z,0
2017-05-03T00:34:09.280Z,0
2017-05-03T00:35:19.285Z,0
2017-05-03T00:36:29.291Z,0
2017-05-03T00:37:38.686Z,0
2017-05-03T00:38:48.722Z,0
2017-05-03T00:39:58.740Z,0
2017-05-03T00:41:08.431Z,0
2017-05-03T00:42:18.663Z,0
2017-05-03T00:43:28.682Z,0
2017-05-03T00:44:38.701Z,0
2017-05-03T00:45:48.702Z,0
2017-05-03T00:46:58.741Z,0
2017-05-03T00:48:08.744Z,0
2017-05-03T00:49:18.441Z,0
2017-05-03T00:50:27.820Z,0
2017-05-03T00:51:37.823Z,0
2017-05-03T00:52:48.145Z,0
2017-05-03T00:53:58.155Z,0
2017-05-03T00:55:08.482Z,0
2017-05-03T00:56:17.863Z,0
2017-05-03T00:57:27.562Z,0
2017-05-03T00:58:37.569Z,0
2017-05-03T00:59:47.892Z,0
2017-05-03T01:00:57.901Z,0
2017-05-03T01:02:07.925Z,0
2017-05-03T01:03:17.642Z,0
2017-05-03T01:04:27.682Z,0
2017-05-03T01:05:37.088Z,0
2017-05-03T01:06:46.491Z,0
2017-05-03T01:07:56.537Z,0
2017-05-03T01:09:06.572Z,0
2017-05-03T01:10:16.607Z,0
2017-05-03T01:11:26.364Z,0
2017-05-03T01:12:36.082Z,0
2017-05-03T01:13:45.814Z,0
2017-05-03T01:14:56.169Z,0
2017-05-03T01:16:06.208Z,0
2017-05-03T01:17:16.249Z,0
2017-05-03T01:18:26.600Z,0
2017-05-03T01:19:36.634Z,0
2017-05-03T01:20:46.354Z,0
2017-05-03T01:21:56.481Z,0
2017-05-03T01:23:06.201Z,0
2017-05-03T01:24:15.609Z,0
2017-05-03T01:25:24.708Z,0
2017-05-03T01:26:34.113Z,0
2017-05-03T01:27:44.473Z,0
2017-05-03T01:28:54.513Z,0
2017-05-03T01:30:04.865Z,0
2017-05-03T01:31:14.587Z,0
2017-05-03T01:32:24.306Z,0
2017-05-03T01:33:34.355Z,0
2017-05-03T01:34:43.756Z,0
2017-05-03T01:35:53.473Z,0
2017-05-03T01:37:03.824Z,0
2017-05-03T01:38:13.554Z,0
2017-05-03T01:39:22.958Z,0
2017-05-03T01:40:32.982Z,0
2017-05-03T01:41:42.703Z,0
2017-05-03T01:42:51.791Z,0
2017-05-03T01:44:02.154Z,0
2017-05-03T01:45:11.870Z,0
2017-05-03T01:46:21.596Z,0
2017-05-03T01:47:31.633Z,0
2017-05-03T01:48:41.380Z,0
2017-05-03T01:49:51.412Z,0
2017-05-03T01:51:00.816Z,0
2017-05-03T01:52:09.908Z,0
2017-05-03T01:53:19.672Z,0
2017-05-03T01:54:29.712Z,0
2017-05-03T01:55:40.052Z,0
2017-05-03T01:56:49.770Z,0
2017-05-03T01:57:59.495Z,0
2017-05-03T01:59:08.890Z,0
2017-05-03T02:00:18.921Z,0
2017-05-03T02:01:28.952Z,0
2017-05-03T02:02:38.671Z,0
2017-05-03T02:03:49.032Z,0
2017-05-03T02:04:58.761Z,0
2017-05-03T02:06:08.814Z,0
2017-05-03T02:07:17.904Z,0
2017-05-03T02:08:27.008Z,0
2017-05-03T02:09:36.744Z,0
2017-05-03T02:10:45.841Z,0
2017-05-03T02:11:55.606Z,0
2017-05-03T02:13:05.640Z,0
2017-05-03T02:14:15.362Z,0
2017-05-03T02:15:25.082Z,0
2017-05-03T02:16:34.815Z,0
2017-05-03T02:17:44.538Z,0
2017-05-03T02:18:54.886Z,0
2017-05-03T02:20:04.605Z,0
2017-05-03T02:21:14.646Z,0
2017-05-03T02:22:24.054Z,0
2017-05-03T02:23:34.086Z,0
2017-05-03T02:24:43.809Z,0
2017-05-03T02:25:53.848Z,0
2017-05-03T02:27:03.255Z,0
2017-05-03T02:28:12.982Z,0
2017-05-03T02:29:22.710Z,0
2017-05-03T02:30:32.157Z,0
2017-05-03T02:31:42.190Z,0
2017-05-03T02:32:51.913Z,0
2017-05-03T02:34:01.015Z,0
2017-05-03T02:35:10.419Z,0
2017-05-03T02:36:20.140Z,0
2017-05-03T02:37:30.173Z,0
2017-05-03T02:38:39.892Z,0
2017-05-03T02:39:50.251Z,0
2017-05-03T02:40:59.972Z,0
2017-05-03T02:42:10.330Z,0
2017-05-03T02:43:20.059Z,0
2017-05-03T02:44:30.417Z,0
2017-05-03T02:45:40.130Z,0
2017-05-03T02:46:50.525Z,0
2017-05-03T02:48:00.246Z,0
2017-05-03T02:49:09.970Z,0
2017-05-03T02:50:20.317Z,0
2017-05-03T02:51:30.040Z,0
2017-05-03T02:52:39.771Z,0
2017-05-03T02:53:49.811Z,0
2017-05-03T02:55:00.181Z,0
2017-05-03T02:56:09.271Z,0
2017-05-03T02:57:19.619Z,0
2017-05-03T02:58:29.027Z,0
2017-05-03T02:59:39.062Z,0
2017-05-03T03:00:48.783Z,0
2017-05-03T03:01:57.877Z,0
2017-05-03T03:03:07.919Z,0
2017-05-03T03:04:17.654Z,0
2017-05-03T03:05:27.063Z,0
2017-05-03T03:06:36.784Z,0
2017-05-03T03:07:46.509Z,0
2017-05-03T03:08:56.243Z,0
2017-05-03T03:10:06.290Z,0
2017-05-03T03:11:16.338Z,0
2017-05-03T03:12:26.694Z,0
2017-05-03T03:13:36.735Z,0
2017-05-03T03:14:46.137Z,0
2017-05-03T03:15:55.861Z,0
2017-05-03T03:17:05.583Z,0
2017-05-03T03:18:15.316Z,0
2017-05-03T03:19:25.033Z,0
2017-05-03T03:20:35.382Z,0
2017-05-03T03:21:45.098Z,0
2017-05-03T03:22:54.811Z,0
2017-05-03T03:24:04.881Z,0
2017-05-03T03:25:14.591Z,0
2017-05-03T03:26:24.308Z,0
2017-05-03T03:27:34.350Z,0
2017-05-03T03:28:44.086Z,0
2017-05-03T03:29:53.491Z,0
2017-05-03T03:31:03.528Z,4
2017-05-03T03:32:13.916Z,0
2017-05-03T03:33:23.951Z,0
2017-05-03T03:34:33.679Z,4
2017-05-03T03:35:44.031Z,4
2017-05-03T03:36:53.740Z,4
2017-05-03T03:38:03.460Z,4
2017-05-03T03:39:12.547Z,4
2017-05-03T03:40:22.269Z,4
2017-05-03T03:41:31.987Z,4
2017-05-03T03:42:42.333Z,8
2017-05-03T03:43:52.689Z,8
2017-05-03T03:45:03.081Z,12
2017-05-03T03:46:12.802Z,12
2017-05-03T03:47:22.849Z,16
2017-05-03T03:48:31.945Z,16
2017-05-03T03:49:41.046Z,20
2017-05-03T03:50:51.397Z,24
2017-05-03T03:52:00.809Z,28
2017-05-03T03:53:10.217Z,32
2017-05-03T03:54:19.942Z,36
2017-05-03T03:55:29.659Z,48
2017-05-03T03:56:38.751Z,48
2017-05-03T03:57:48.486Z,56
2017-05-03T03:58:57.893Z,60
2017-05-03T04:00:07.612Z,56
2017-05-03T04:01:17.332Z,60
2017-05-03T04:02:27.371Z,64
2017-05-03T04:03:37.129Z,72
2017-05-03T04:04:46.848Z,80
2017-05-03T04:05:56.876Z,84
2017-05-03T04:07:06.596Z,104
2017-05-03T04:08:16.644Z,116
2017-05-03T04:09:26.688Z,128
2017-05-03T04:10:36.410Z,136
2017-05-03T04:11:45.529Z,128
2017-05-03T04:12:54.944Z,132
2017-05-03T04:14:04.358Z,132
2017-05-03T04:15:14.709Z,128
2017-05-03T04:16:23.803Z,136
2017-05-03T04:17:33.515Z,136
2017-05-03T04:18:43.556Z,160
2017-05-03T04:19:52.967Z,172
2017-05-03T04:21:03.008Z,176
2017-05-03T04:22:12.728Z,188
2017-05-03T04:23:22.481Z,196
2017-05-03T04:24:31.891Z,212
2017-05-03T04:25:41.291Z,228
2017-05-03T04:26:51.015Z,240
2017-05-03T04:28:01.104Z,248
2017-05-03T04:29:10.520Z,252
2017-05-03T04:30:19.613Z,252
2017-05-03T04:31:29.022Z,264
2017-05-03T04:32:39.371Z,256
2017-05-03T04:33:49.093Z,260
2017-05-03T04:34:59.442Z,284
2017-05-03T04:36:09.492Z,356
2017-05-03T04:37:19.215Z,368
2017-05-03T04:38:28.939Z,388
2017-05-03T04:39:38.653Z,504
2017-05-03T04:40:48.690Z,716
2017-05-03T04:41:59.052Z,668
2017-05-03T04:43:09.089Z,716
2017-05-03T04:44:19.122Z,816
2017-05-03T04:45:28.529Z,804
2017-05-03T04:46:38.882Z,796
2017-05-03T04:47:48.280Z,768
2017-05-03T04:48:57.687Z,740
2017-05-03T04:50:08.035Z,756
2017-05-03T04:51:17.770Z,840
2017-05-03T04:52:28.120Z,916
2017-05-03T04:53:38.156Z,868
2017-05-03T04:54:48.178Z,968
2017-05-03T04:55:58.219Z,1256
2017-05-03T04:57:07.945Z,1464
2017-05-03T04:58:17.991Z,1560
2017-05-03T04:59:28.035Z,1548
2017-05-03T05:00:37.759Z,1604
2017-05-03T05:01:48.105Z,1516
2017-05-03T05:02:57.820Z,1496
2017-05-03T05:04:08.180Z,1700
2017-05-03T05:05:17.906Z,2040
2017-05-03T05:06:27.314Z,2076
2017-05-03T05:07:36.765Z,1940
2017-05-03T05:08:46.175Z,1596
2017-05-03T05:09:55.898Z,1340
2017-05-03T05:11:05.301Z,1272
2017-05-03T05:12:14.713Z,1356
2017-05-03T05:13:24.755Z,1784
2017-05-03T05:14:34.795Z,1948
2017-05-03T05:15:44.527Z,2136
2017-05-03T05:16:54.565Z,2320
2017-05-03T05:18:04.601Z,3056
2017-05-03T05:19:14.007Z,2644
2017-05-03T05:20:23.727Z,2524
2017-05-03T05:21:33.447Z,2592
2017-05-03T05:22:43.471Z,2440
2017-05-03T05:23:53.508Z,2544
2017-05-03T05:25:03.232Z,2768
2017-05-03T05:26:13.264Z,2976
2017-05-03T05:27:23.622Z,3516
2017-05-03T05:28:33.352Z,3084
2017-05-03T05:29:43.395Z,2636
2017-05-03T05:30:53.113Z,2896
2017-05-03T05:32:02.835Z,3096
2017-05-03T05:33:12.553Z,3420
2017-05-03T05:34:22.592Z,3444
2017-05-03T05:35:31.996Z,3476
2017-05-03T05:36:42.340Z,3732
2017-05-03T05:37:51.449Z,4552
2017-05-03T05:39:01.487Z,4924
2017-05-03T05:40:11.525Z,5028
2017-05-03T05:41:21.568Z,4892
2017-05-03T05:42:30.973Z,4632
2017-05-03T05:43:41.011Z,4032
2017-05-03T05:44:50.741Z,3456
2017-05-03T05:46:00.468Z,3244
2017-05-03T05:47:09.564Z,3508
2017-05-03T05:48:19.288Z,4244
2017-05-03T05:49:29.326Z,4984
2017-05-03T05:50:39.055Z,5500
2017-05-03T05:51:48.779Z,5844
2017-05-03T05:52:58.507Z,5936
2017-05-03T05:54:08.230Z,5816
2017-05-03T05:55:17.947Z,5572
2017-05-03T05:56:27.359Z,5572
2017-05-03T05:57:37.095Z,5952
2017-05-03T05:58:47.454Z,6804
2017-05-03T05:59:57.177Z,7616
2017-05-03T06:01:06.581Z,8516
2017-05-03T06:02:16.298Z,9676
2017-05-03T06:03:25.704Z,11040
2017-05-03T06:04:35.733Z,11628
2017-05-03T06:05:44.820Z,10596
2017-05-03T06:06:54.857Z,9124
2017-05-03T06:08:04.893Z,8416
2017-05-03T06:09:15.235Z,8400
2017-05-03T06:10:24.959Z,8708
2017-05-03T06:11:34.371Z,9720
2017-05-03T06:12:44.101Z,10368
2017-05-03T06:13:53.524Z,10512
2017-05-03T06:15:02.933Z,9988
2017-05-03T06:16:12.336Z,9084
2017-05-03T06:17:22.685Z,8444
2017-05-03T06:18:31.782Z,7800
2017-05-03T06:19:41.515Z,7368
2017-05-03T06:20:51.238Z,6868
2017-05-03T06:22:00.330Z,6212
2017-05-03T06:23:09.743Z,5840
2017-05-03T06:24:19.793Z,5212
2017-05-03T06:25:30.149Z,5024
2017-05-03T06:26:40.197Z,4836
2017-05-03T06:27:49.916Z,4328
2017-05-03T06:28:59.643Z,3996
2017-05-03T06:30:09.681Z,4412
2017-05-03T06:31:19.090Z,4536
2017-05-03T06:32:29.446Z,4176
2017-05-03T06:33:38.852Z,4524
2017-05-03T06:34:48.904Z,4836
2017-05-03T06:35:58.308Z,5552
2017-05-03T06:37:07.718Z,5828
2017-05-03T06:38:17.783Z,5772
2017-05-03T06:39:27.511Z,5992
2017-05-03T06:40:37.281Z,6392
2017-05-03T06:41:47.339Z,6380
2017-05-03T06:42:57.380Z,5996
2017-05-03T06:44:06.792Z,5828
2017-05-03T06:45:16.834Z,5924
2017-05-03T06:46:26.234Z,5728
2017-05-03T06:47:36.279Z,5444
2017-05-03T06:48:46.623Z,5692
2017-05-03T06:49:56.352Z,6292
2017-05-03T06:51:06.389Z,6940
2017-05-03T06:52:15.800Z,7196
2017-05-03T06:53:26.146Z,6928
2017-05-03T06:54:36.184Z,7036
2017-05-03T06:55:45.916Z,8008
2017-05-03T06:56:56.267Z,7752
2017-05-03T06:58:05.986Z,8548
2017-05-03T06:59:15.392Z,9588
2017-05-03T07:00:24.798Z,10452
2017-05-03T07:01:34.522Z,9672
2017-05-03T07:02:44.573Z,8668
2017-05-03T07:03:54.630Z,7008
2017-05-03T07:05:04.674Z,6292
2017-05-03T07:06:14.391Z,6328
2017-05-03T07:07:24.117Z,5664
2017-05-03T07:08:33.844Z,5756
2017-05-03T07:09:43.871Z,5380
2017-05-03T07:10:53.280Z,5184
2017-05-03T07:12:02.380Z,5336
2017-05-03T07:13:12.099Z,5120
2017-05-03T07:14:21.833Z,5392
2017-05-03T07:15:31.881Z,5388
2017-05-03T07:16:41.595Z,4804
2017-05-03T07:17:51.638Z,4612
2017-05-03T07:19:01.044Z,4816
2017-05-03T07:20:11.089Z,4756
2017-05-03T07:21:20.818Z,4472
2017-05-03T07:22:29.949Z,3972
2017-05-03T07:23:40.312Z,3792
2017-05-03T07:24:49.710Z,3848
2017-05-03T07:25:59.422Z,3932
2017-05-03T07:27:09.148Z,4080
2017-05-03T07:28:18.884Z,4424
2017-05-03T07:29:28.304Z,4704
2017-05-03T07:30:37.714Z,5124
2017-05-03T07:31:47.756Z,5968
2017-05-03T07:32:57.485Z,6976
2017-05-03T07:34:07.848Z,8200
2017-05-03T07:35:17.875Z,8740
2017-05-03T07:36:27.607Z,8668
2017-05-03T07:37:36.702Z,8300
2017-05-03T07:38:46.466Z,7904
2017-05-03T07:39:56.202Z,7728
2017-05-03T07:41:05.925Z,7736
2017-05-03T07:42:15.650Z,7832
2017-05-03T07:43:25.701Z,8096
2017-05-03T07:44:35.437Z,8832
2017-05-03T07:45:45.157Z,10124
2017-05-03T07:46:55.187Z,12212
2017-05-03T07:48:05.227Z,14152
2017-05-03T07:49:15.259Z,15668
2017-05-03T07:50:24.976Z,17184
2017-05-03T07:51:35.323Z,19840
2017-05-03T07:52:45.051Z,21088
2017-05-03T07:53:55.094Z,22016
2017-05-03T07:55:04.849Z,23232
2017-05-03T07:56:14.261Z,31200
2017-05-03T07:57:23.991Z,29152
2017-05-03T07:58:33.721Z,24576
2017-05-03T07:59:44.088Z,22880
2017-05-03T08:00:54.130Z,21760
2017-05-03T08:02:03.847Z,19456
2017-05-03T08:03:13.574Z,17568
2017-05-03T08:04:23.928Z,14876
2017-05-03T08:05:33.347Z,13792
2017-05-03T08:06:43.386Z,13544
2017-05-03T08:07:53.747Z,13844
2017-05-03T08:09:02.844Z,14748
2017-05-03T08:10:13.196Z,16208
2017-05-03T08:11:22.923Z,18240
2017-05-03T08:12:32.645Z,23072
2017-05-03T08:13:42.374Z,27680
2017-05-03T08:14:51.791Z,28576
2017-05-03T08:16:01.524Z,29248
2017-05-03T08:17:11.257Z,28704
2017-05-03T08:18:21.296Z,26976
2017-05-03T08:19:31.023Z,25536
2017-05-03T08:20:40.791Z,22688
2017-05-03T08:21:50.525Z,19712
2017-05-03T08:23:00.248Z,17824
2017-05-03T08:24:10.287Z,16544
2017-05-03T08:25:20.019Z,15848
2017-05-03T08:26:30.062Z,15904
2017-05-03T08:27:39.476Z,16336
2017-05-03T08:28:49.520Z,16300
2017-05-03T08:29:58.932Z,16992
2017-05-03T08:31:08.339Z,18656
2017-05-03T08:32:18.065Z,20128
2017-05-03T08:33:27.479Z,22816
2017-05-03T08:34:37.839Z,26112
2017-05-03T08:35:47.879Z,29632
2017-05-03T08:36:57.926Z,31456
2017-05-03T08:38:07.338Z,34624
2017-05-03T08:39:17.060Z,33632
2017-05-03T08:40:26.795Z,29984
2017-05-03T08:41:36.836Z,28544
2017-05-03T08:42:46.554Z,29216
2017-05-03T08:43:56.290Z,43424
2017-05-03T08:45:05.703Z,32928
2017-05-03T08:46:15.428Z,38336
2017-05-03T08:47:25.172Z,45248
2017-05-03T08:48:35.554Z,41056
2017-05-03T08:49:45.289Z,33696
2017-05-03T08:50:54.707Z,27584
2017-05-03T08:52:04.438Z,26976
2017-05-03T08:53:14.176Z,28384
2017-05-03T08:54:23.946Z,29824
2017-05-03T08:55:34.024Z,29984
2017-05-03T08:56:44.090Z,28576
2017-05-03T08:57:54.128Z,26496
2017-05-03T08:59:03.535Z,26816
2017-05-03T09:00:13.571Z,28064
2017-05-03T09:01:23.304Z,28000
2017-05-03T09:02:33.358Z,26784
2017-05-03T09:03:43.098Z,26240
2017-05-03T09:04:52.836Z,26400
2017-05-03T09:06:03.202Z,27328
2017-05-03T09:07:13.251Z,29120
2017-05-03T09:08:23.303Z,31200
2017-05-03T09:09:33.036Z,34816
2017-05-03T09:10:43.083Z,39264
2017-05-03T09:11:53.127Z,40960
2017-05-03T09:13:02.867Z,46464
2017-05-03T09:14:12.911Z,48000
2017-05-03T09:15:22.655Z,45760
2017-05-03T09:16:32.404Z,38688
2017-05-03T09:17:42.488Z,45120
2017-05-03T09:18:52.224Z,47456
2017-05-03T09:20:02.276Z,48896
2017-05-03T09:21:12.006Z,46944
2017-05-03T09:22:21.433Z,46656
2017-05-03T09:23:31.522Z,49056
2017-05-03T09:24:41.587Z,46368
2017-05-03T09:25:51.319Z,33696
2017-05-03T09:27:01.685Z,25600
2017-05-03T09:28:11.420Z,24544
2017-05-03T09:29:20.522Z,23456
2017-05-03T09:30:30.262Z,23648
2017-05-03T09:31:39.994Z,23840
2017-05-03T09:32:49.729Z,24000
2017-05-03T09:33:59.466Z,23648
2017-05-03T09:35:09.516Z,23168
2017-05-03T09:36:19.254Z,23840
2017-05-03T09:37:28.994Z,24768
2017-05-03T09:38:38.422Z,23680
2017-05-03T09:39:48.156Z,22208
2017-05-03T09:40:58.211Z,20928
2017-05-03T09:42:07.944Z,18784
2017-05-03T09:43:17.046Z,17792
2017-05-03T09:44:26.776Z,18208
2017-05-03T09:45:36.525Z,19200
2017-05-03T09:46:46.169Z,21184
2017-05-03T09:47:56.206Z,24064
2017-05-03T09:49:05.942Z,26464
2017-05-03T09:50:16.303Z,27104
2017-05-03T09:51:25.089Z,27488
2017-05-03T09:52:35.139Z,29056
2017-05-03T09:53:44.870Z,30400
2017-05-03T09:54:54.637Z,32448
2017-05-03T09:56:04.047Z,35584
2017-05-03T09:57:13.771Z,38048
2017-05-03T09:58:23.500Z,36320
2017-05-03T09:59:33.232Z,32992
2017-05-03T10:00:42.958Z,32384
2017-05-03T10:01:52.679Z,34784
2017-05-03T10:03:02.096Z,33536
2017-05-03T10:04:11.863Z,31008
2017-05-03T10:05:22.222Z,30304
2017-05-03T10:06:32.279Z,31392
2017-05-03T10:07:42.015Z,35520
2017-05-03T10:08:51.748Z,43648
2017-05-03T10:10:01.804Z,35712
2017-05-03T10:11:12.160Z,31360
2017-05-03T10:12:21.879Z,29408
2017-05-03T10:13:31.307Z,29952
2017-05-03T10:14:40.714Z,35104
2017-05-03T10:15:50.444Z,54784
2017-05-03T10:17:00.496Z,53280
2017-05-03T10:18:10.547Z,49472
2017-05-03T10:19:20.596Z,42176
2017-05-03T10:20:30.330Z,75872
2017-05-03T10:21:40.395Z,71328
2017-05-03T10:22:50.135Z,63296
2017-05-03T10:25:10.603Z,67776
2017-05-03T10:26:20.333Z,71232
2017-05-03T10:27:30.383Z,26240
2017-05-03T10:28:39.798Z,57888
2017-05-03T10:29:49.528Z,40864
2017-05-03T10:30:59.581Z,31200
2017-05-03T10:32:09.312Z,31776
2017-05-03T10:33:19.044Z,29632
2017-05-03T10:34:29.410Z,28416
2017-05-03T10:35:39.453Z,26496
2017-05-03T10:36:48.864Z,25984
2017-05-03T10:37:58.616Z,26144
2017-05-03T10:39:08.660Z,24160
2017-05-03T10:40:18.706Z,21920
2017-05-03T10:41:28.126Z,23680
2017-05-03T10:42:37.860Z,22592
2017-05-03T10:43:47.276Z,20640
2017-05-03T10:44:57.642Z,23200
2017-05-03T10:46:07.057Z,25952
2017-05-03T10:47:17.099Z,24608
2017-05-03T10:48:27.136Z,20608
2017-05-03T10:49:36.561Z,17536
2017-05-03T10:50:46.289Z,18432
2017-05-03T10:51:56.028Z,20352
2017-05-03T10:53:05.442Z,22304
2017-05-03T10:54:15.485Z,24480
2017-05-03T10:55:25.206Z,26176
2017-05-03T10:56:34.965Z,24224
2017-05-03T10:57:45.320Z,22880
2017-05-03T10:58:55.073Z,22176
2017-05-03T11:00:05.113Z,22080
2017-05-03T11:01:14.841Z,22400
2017-05-03T11:02:24.259Z,22944
2017-05-03T11:03:34.000Z,24192
2017-05-03T11:04:43.108Z,24448
2017-05-03T11:05:52.832Z,25248
2017-05-03T11:07:02.559Z,26400
2017-05-03T11:08:12.606Z,27232
2017-05-03T11:09:22.964Z,27648
2017-05-03T11:10:33.320Z,30048
2017-05-03T11:11:42.734Z,32000
2017-05-03T11:12:52.462Z,30656
2017-05-03T11:14:01.881Z,33216
2017-05-03T11:15:11.927Z,34400
2017-05-03T11:16:21.648Z,39840
2017-05-03T11:17:32.001Z,74336
2017-05-03T11:18:41.417Z,105856
2017-05-03T11:19:50.834Z,82496
2017-05-03T11:21:00.878Z,49504
2017-05-03T11:22:10.619Z,93888
2017-05-03T11:23:19.719Z,53536
2017-05-03T11:24:30.070Z,50144
2017-05-03T11:25:39.798Z,31776
2017-05-03T11:26:49.837Z,28256
2017-05-03T11:28:00.193Z,32896
2017-05-03T11:29:09.920Z,32736
2017-05-03T11:30:19.013Z,31104
2017-05-03T11:31:28.431Z,30272
2017-05-03T11:32:38.172Z,30048
2017-05-03T11:33:48.215Z,29568
2017-05-03T11:34:57.331Z,28992
2017-05-03T11:36:07.076Z,27808
2017-05-03T11:37:16.813Z,27264
2017-05-03T11:38:26.538Z,25120
2017-05-03T11:39:35.640Z,22496
2017-05-03T11:40:45.363Z,20384
2017-05-03T11:41:55.093Z,18560
2017-05-03T11:43:04.813Z,17888
2017-05-03T11:44:14.855Z,18080
2017-05-03T11:45:24.582Z,18048
2017-05-03T11:46:33.369Z,19136
2017-05-03T11:47:43.095Z,25024
2017-05-03T11:48:53.141Z,61088
2017-05-03T11:50:03.210Z,32608
2017-05-03T11:51:13.252Z,31680
2017-05-03T11:52:22.987Z,35936
2017-05-03T11:53:32.721Z,39712
2017-05-03T11:54:42.764Z,37536
2017-05-03T11:55:52.499Z,34592
2017-05-03T11:57:02.859Z,30208
2017-05-03T11:58:12.585Z,26976
2017-05-03T11:59:21.682Z,24896
2017-05-03T12:00:32.042Z,23520
2017-05-03T12:01:42.091Z,22528
2017-05-03T12:02:52.124Z,21696
2017-05-03T12:04:02.167Z,20864
2017-05-03T12:05:12.219Z,20352
2017-05-03T12:06:22.276Z,18592
2017-05-03T12:07:32.004Z,18240
2017-05-03T12:08:41.732Z,20224
2017-05-03T12:09:51.463Z,22976
2017-05-03T12:11:00.563Z,26464
2017-05-03T12:12:10.607Z,30112
2017-05-03T12:13:20.336Z,32224
2017-05-03T12:14:30.063Z,32640
2017-05-03T12:15:40.409Z,30176
2017-05-03T12:16:50.146Z,27968
2017-05-03T12:18:00.497Z,28288
2017-05-03T12:19:09.912Z,29632
2017-05-03T12:20:19.647Z,31616
2017-05-03T12:21:29.684Z,32736
2017-05-03T12:22:38.779Z,32288
2017-05-03T12:23:48.511Z,31424
2017-05-03T12:24:58.549Z,30656
2017-05-03T12:26:08.913Z,29632
2017-05-03T12:27:18.635Z,28864
2017-05-03T12:28:27.728Z,28896
2017-05-03T12:29:38.082Z,29280
2017-05-03T12:30:48.123Z,29664
2017-05-03T12:31:57.847Z,30432
2017-05-03T12:33:07.577Z,31264
2017-05-03T12:34:17.312Z,31168
2017-05-03T12:35:27.359Z,30240
2017-05-03T12:36:37.102Z,30208
2017-05-03T12:37:46.830Z,30272
2017-05-03T12:38:56.554Z,30400
2017-05-03T12:40:06.590Z,30528
2017-05-03T12:41:16.005Z,31200
2017-05-03T12:42:25.732Z,30816
2017-05-03T12:43:35.466Z,29440
2017-05-03T12:44:45.832Z,26368
2017-05-03T12:45:55.884Z,23552
2017-05-03T12:47:05.614Z,21184
2017-05-03T12:48:15.024Z,19264
2017-05-03T12:49:24.436Z,18144
2017-05-03T12:50:33.844Z,17824
2017-05-03T12:51:43.581Z,18208
2017-05-03T12:52:53.628Z,19712
2017-05-03T12:54:03.353Z,21632
2017-05-03T12:55:13.394Z,23328
2017-05-03T12:56:22.494Z,25600
2017-05-03T12:57:32.543Z,27840
2017-05-03T12:58:42.598Z,30592
2017-05-03T12:59:52.645Z,34176
2017-05-03T13:01:02.697Z,38048
2017-05-03T13:02:12.742Z,65120
2017-05-03T13:03:22.467Z,53696
2017-05-03T13:04:32.189Z,51040
2017-05-03T13:05:41.609Z,57248
2017-05-03T13:06:51.018Z,53984
2017-05-03T13:08:01.066Z,50720
2017-05-03T13:09:10.792Z,59200
2017-05-03T13:10:20.208Z,44448
2017-05-03T13:11:29.616Z,57024
2017-05-03T13:12:39.031Z,49824
2017-05-03T13:13:48.766Z,53440
2017-05-03T13:14:58.496Z,47552
2017-05-03T13:16:08.539Z,40736
2017-05-03T13:17:17.948Z,38368
2017-05-03T13:18:27.692Z,38944
2017-05-03T13:19:37.426Z,39616
2017-05-03T13:20:47.478Z,40704
2017-05-03T13:21:57.517Z,43680
2017-05-03T13:23:06.939Z,51168
2017-05-03T13:24:16.991Z,57600
2017-05-03T13:25:26.729Z,45472
2017-05-03T13:26:36.153Z,46144
2017-05-03T13:27:46.519Z,48448
2017-05-03T13:28:56.557Z,48576
2017-05-03T13:30:06.602Z,47936
2017-05-03T13:31:16.654Z,45152
2017-05-03T13:32:25.756Z,34016
2017-05-03T13:33:35.504Z,36448
2017-05-03T13:34:44.920Z,46176
2017-05-03T13:35:54.976Z,37408
2017-05-03T13:37:04.711Z,38336
2017-05-03T13:38:13.813Z,36704
2017-05-03T13:39:23.552Z,33632
2017-05-03T13:40:33.599Z,39264
2017-05-03T13:41:43.963Z,43200
2017-05-03T13:42:54.336Z,36544
2017-05-03T13:44:04.403Z,39616
2017-05-03T13:45:14.445Z,35200
2017-05-03T13:46:23.874Z,41632
2017-05-03T13:47:34.241Z,36640
2017-05-03T13:48:44.293Z,43616
2017-05-03T13:49:53.716Z,43520
2017-05-03T13:51:03.764Z,43104
2017-05-03T13:52:13.815Z,42848
2017-05-03T13:53:22.914Z,40096
2017-05-03T13:54:32.650Z,39872
2017-05-03T13:55:42.695Z,36864
2017-05-03T13:56:52.107Z,37184
2017-05-03T13:58:01.530Z,35904
2017-05-03T13:59:11.580Z,35616
2017-05-03T14:00:20.998Z,34720
2017-05-03T14:01:30.731Z,35840
2017-05-03T14:02:40.781Z,31200
2017-05-03T14:03:50.205Z,31968
2017-05-03T14:05:00.572Z,31328
2017-05-03T14:06:09.996Z,31328
2017-05-03T14:07:20.063Z,31680
2017-05-03T14:08:29.791Z,37056
2017-05-03T14:09:39.513Z,39200
2017-05-03T14:10:49.241Z,39328
2017-05-03T14:11:58.979Z,35456
2017-05-03T14:13:08.385Z,37408
2017-05-03T14:14:18.158Z,37824
2017-05-03T14:15:27.900Z,35776
2017-05-03T14:16:36.680Z,37152
2017-05-03T14:17:46.106Z,38112
2017-05-03T14:18:55.517Z,38336
2017-05-03T14:20:05.893Z,38208
2017-05-03T14:21:15.945Z,38784
2017-05-03T14:22:25.684Z,38432
2017-05-03T14:23:35.723Z,38976
2017-05-03T14:24:45.134Z,38560
2017-05-03T14:25:54.547Z,36864
2017-05-03T14:27:04.284Z,35264
2017-05-03T14:28:14.641Z,33600
2017-05-03T14:29:24.689Z,33312
2017-05-03T14:30:34.743Z,32992
2017-05-03T14:31:44.782Z,33472
2017-05-03T14:32:54.822Z,33280
2017-05-03T14:34:04.559Z,33440
2017-05-03T14:35:14.291Z,31584
2017-05-03T14:36:24.026Z,30688
2017-05-03T14:37:34.076Z,30016
2017-05-03T14:38:44.145Z,28032
2017-05-03T14:39:54.211Z,27072
2017-05-03T14:41:03.622Z,26016
2017-05-03T14:42:13.672Z,25920
2017-05-03T14:43:23.407Z,25408
2017-05-03T14:44:33.458Z,25472
2017-05-03T14:45:43.502Z,25600
2017-05-03T14:46:53.550Z,25568
2017-05-03T14:48:03.276Z,25536
2017-05-03T14:49:13.324Z,25536
2017-05-03T14:50:23.060Z,26016
2017-05-03T14:51:32.795Z,25920
2017-05-03T14:52:42.215Z,25792
2017-05-03T14:53:52.256Z,25312
2017-05-03T14:55:02.307Z,25184
2017-05-03T14:56:11.718Z,25120
2017-05-03T14:57:21.756Z,25120
2017-05-03T14:58:31.482Z,25472
2017-05-03T14:59:40.912Z,25696
2017-05-03T15:00:50.958Z,25696
2017-05-03T15:02:01.008Z,25472
2017-05-03T15:03:11.059Z,25280
2017-05-03T15:04:20.798Z,25888
2017-05-03T15:05:30.523Z,26112
2017-05-03T15:06:39.623Z,27008
2017-05-03T15:07:49.669Z,27808
2017-05-03T15:08:58.785Z,28224
2017-05-03T15:10:08.208Z,28416
2017-05-03T15:11:17.930Z,28416
2017-05-03T15:12:27.982Z,29120
2017-05-03T15:13:37.400Z,29792
2017-05-03T15:14:47.443Z,30336
2017-05-03T15:15:56.544Z,32000
2017-05-03T15:17:05.644Z,32032
2017-05-03T15:18:16.009Z,32288
2017-05-03T15:19:25.437Z,33696
2017-05-03T15:20:35.814Z,35744
2017-05-03T15:21:45.539Z,38240
2017-05-03T15:22:55.276Z,38400
2017-05-03T15:24:05.321Z,37728
2017-05-03T15:25:14.738Z,35712
2017-05-03T15:26:24.792Z,34368
2017-05-03T15:27:34.524Z,32896
2017-05-03T15:28:44.573Z,30912
2017-05-03T15:29:54.933Z,26336
2017-05-03T15:31:04.985Z,25952
2017-05-03T15:32:14.391Z,21408
2017-05-03T15:33:24.440Z,20416
2017-05-03T15:34:34.492Z,20384
2017-05-03T15:35:44.545Z,20768
2017-05-03T15:36:54.589Z,21344
2017-05-03T15:38:04.639Z,22048
2017-05-03T15:39:14.695Z,21888